Time;durP1;ratioP1;P1;durP2;ratioP2;P2;SDS_P1;SDS_P2;PMS_P1;PMS_P2;Temp;Humidity;BMP_temperature;BMP_pressure;BME280_temperature;BME280_humidity;BME280_pressure;Samples;Min_cycle;Max_cycle;Signal;HPM_P1;HPM_P2
2022/07/29 00:02:06;;;;;;;16.60;6.30;;;;;;;;;;4959014;28;20051;-64
2022/07/29 00:04:37;;;;;;;12.57;6.53;;;;;;;;;;4991616;28;20533;-64
2022/07/29 00:07:07;;;;;;;12.95;6.40;;;;;;;;;;4991414;28;20061;-64
2022/07/29 00:09:39;;;;;;;10.57;4.68;;;;;;;;;;5011158;28;20064;-63
2022/07/29 00:12:23;;;;;;;11.90;4.72;;;;;;;;;;5030872;28;20045;-63
2022/07/29 00:14:56;;;;;;;14.07;7.20;;;;;;;;;;5030679;28;20515;-64
2022/07/29 00:17:27;;;;;;;16.10;7.03;;;;;;;;;;5030384;28;20057;-65
2022/07/29 00:19:57;;;;;;;12.00;6.88;;;;;;;;;;5030351;28;20053;-64
2022/07/29 00:22:27;;;;;;;11.88;5.70;;;;;;;;;;5030325;28;20054;-63
2022/07/29 00:24:57;;;;;;;12.82;7.22;;;;;;;;;;5013808;28;20057;-64
2022/07/29 00:27:27;;;;;;;12.52;5.93;;;;;;;;;;5030884;28;20560;-64
2022/07/29 00:29:58;;;;;;;12.25;6.13;;;;;;;;;;5030487;28;20072;-62
2022/07/29 00:32:28;;;;;;;15.82;6.65;;;;;;;;;;5013812;28;20057;-67
2022/07/29 00:37:47;;;;;;;13.43;5.90;;;;;;;;;;5030355;28;20038;-66
2022/07/29 00:40:17;;;;;;;5.57;3.13;;;;;;;;;;5013837;28;20045;-63
2022/07/29 00:42:53;;;;;;;13.68;6.50;;;;;;;;;;4997543;28;20061;-61
2022/07/29 00:45:23;;;;;;;7.35;3.53;;;;;;;;;;4990327;28;20054;-63
2022/07/29 00:47:53;;;;;;;4.47;1.95;;;;;;;;;;4990668;28;20054;-63
2022/07/29 00:50:24;;;;;;;2.00;1.05;;;;;;;;;;4974156;28;20162;-63
2022/07/29 00:52:55;;;;;;;2.33;1.02;;;;;;;;;;4990417;28;20530;-66
2022/07/29 00:55:25;;;;;;;1.70;0.80;;;;;;;;;;5002634;28;20050;-64
2022/07/29 00:57:57;;;;;;;1.42;0.70;;;;;;;;;;5009106;28;20498;-64
2022/07/29 01:00:29;;;;;;;1.58;0.40;;;;;;;;;;5009832;28;20757;-62
2022/07/29 01:03:00;;;;;;;4.60;0.57;;;;;;;;;;5009969;28;20054;-62
2022/07/29 01:05:33;;;;;;;2.45;1.00;;;;;;;;;;4976979;28;20096;-64
2022/07/29 01:08:20;;;;;;;1.58;0.80;;;;;;;;;;5025508;28;20505;-64
2022/07/29 01:10:52;;;;;;;2.33;0.93;;;;;;;;;;5029467;28;20056;-64
2022/07/29 01:13:22;;;;;;;;;;;;;;;;;;5030326;28;20056;-64
2022/07/29 01:15:58;;;;;;;1.73;0.70;;;;;;;;;;5029606;28;19925;-63
2022/07/29 01:18:38;;;;;;;3.30;0.70;;;;;;;;;;5029652;28;20049;-64
2022/07/29 01:21:46;;;;;;;1.52;0.73;;;;;;;;;;5029731;28;20046;-63
2022/07/29 01:24:41;;;;;;;1.75;0.77;;;;;;;;;;5069073;28;20067;-64
2022/07/29 01:27:17;;;;;;;1.83;0.65;;;;;;;;;;5069359;28;20079;-63
2022/07/29 01:30:00;;;;;;;2.30;0.90;;;;;;;;;;5035834;28;20530;-63
2022/07/29 01:32:36;;;;;;;2.22;0.88;;;;;;;;;;5009283;28;20054;-64
2022/07/29 01:35:26;;;;;;;1.27;0.90;;;;;;;;;;5009572;28;20057;-64
2022/07/29 01:38:25;;;;;;;2.38;0.80;;;;;;;;;;4989374;28;20513;-64
2022/07/29 01:41:09;;;;;;;2.60;0.93;;;;;;;;;;4969748;28;20499;-64
2022/07/29 01:43:48;;;;;;;2.22;0.80;;;;;;;;;;4970354;28;20769;-63
2022/07/29 01:46:40;;;;;;;1.38;0.68;;;;;;;;;;4954298;28;20103;-64
2022/07/29 01:49:25;;;;;;;5.22;0.93;;;;;;;;;;4922330;28;20066;-63
2022/07/29 01:52:05;;;;;;;2.55;1.13;;;;;;;;;;4970014;28;20059;-64
2022/07/29 01:55:11;;;;;;;7.03;1.00;;;;;;;;;;4970258;28;20066;-64
2022/07/29 01:57:46;;;;;;;2.97;0.80;;;;;;;;;;4893651;29;20509;-64
2022/07/29 02:00:17;;;;;;;2.08;0.88;;;;;;;;;;4894298;29;20448;-64
2022/07/29 02:02:49;;;;;;;1.63;0.75;;;;;;;;;;4893709;29;20797;-65
2022/07/29 02:05:23;;;;;;;4.15;0.85;;;;;;;;;;4875076;29;20049;-65
2022/07/29 02:07:54;;;;;;;2.17;0.80;;;;;;;;;;4875127;29;20069;-64
2022/07/29 02:10:28;;;;;;;3.05;0.80;;;;;;;;;;4897457;29;20060;-62
2022/07/29 02:12:59;;;;;;;8.88;0.95;;;;;;;;;;4944248;29;20044;-63
2022/07/29 02:15:33;;;;;;;2.45;1.00;;;;;;;;;;4904084;29;20394;-63
2022/07/29 02:18:13;;;;;;;4.13;0.90;;;;;;;;;;4862202;29;20053;-65
2022/07/29 02:20:48;;;;;;;3.28;1.10;;;;;;;;;;4912424;29;20071;-65
2022/07/29 02:23:24;;;;;;;1.85;0.80;;;;;;;;;;4912241;29;20056;-63
2022/07/29 02:25:59;;;;;;;2.38;0.82;;;;;;;;;;4896694;29;20744;-64
2022/07/29 02:28:31;;;;;;;2.65;1.17;;;;;;;;;;4914956;29;20429;-65
2022/07/29 02:31:03;;;;;;;4.13;0.90;;;;;;;;;;4950611;29;20177;-66
2022/07/29 02:33:34;;;;;;;;;;;;;;;;;;4972604;28;20413;-66
2022/07/29 02:36:04;;;;;;;4.95;0.70;;;;;;;;;;4980548;28;19925;-66
2022/07/29 02:38:53;;;;;;;4.30;0.80;;;;;;;;;;5028417;28;20057;-64
2022/07/29 02:41:35;;;;;;;2.90;1.00;;;;;;;;;;4988828;28;20047;-63
2022/07/29 02:44:20;;;;;;;4.32;1.02;;;;;;;;;;4989310;28;20546;-64
2022/07/29 02:47:11;;;;;;;2.00;0.93;;;;;;;;;;4969366;28;20039;-64
2022/07/29 02:49:46;;;;;;;;;;;;;;;;;;4993308;28;20054;-64
2022/07/29 02:52:28;;;;;;;2.63;0.90;;;;;;;;;;5008696;28;19921;-64
2022/07/29 02:55:22;;;;;;;2.95;0.88;;;;;;;;;;5008787;28;20061;-64
2022/07/29 02:58:03;;;;;;;2.20;0.80;;;;;;;;;;5008492;28;20050;-66
2022/07/29 03:00:38;;;;;;;1.77;0.80;;;;;;;;;;4993188;28;20068;-64
2022/07/29 03:03:13;;;;;;;1.98;0.85;;;;;;;;;;4992131;28;20050;-64
2022/07/29 03:05:43;;;;;;;2.30;1.00;;;;;;;;;;4959911;28;20062;-65
2022/07/29 03:08:16;;;;;;;2.22;0.90;;;;;;;;;;5008498;28;20061;-63
2022/07/29 03:10:47;;;;;;;4.05;1.00;;;;;;;;;;4991746;28;20081;-63
2022/07/29 03:13:19;;;;;;;3.10;1.42;;;;;;;;;;5008540;28;20058;-63
2022/07/29 03:15:50;;;;;;;2.25;1.13;;;;;;;;;;5008578;28;20050;-61
2022/07/29 03:18:21;;;;;;;6.05;1.20;;;;;;;;;;5016862;28;20049;-62
2022/07/29 03:20:52;;;;;;;3.17;0.90;;;;;;;;;;5049260;28;20052;-62
2022/07/29 03:23:27;;;;;;;1.95;0.85;;;;;;;;;;4988536;28;20063;-62
2022/07/29 03:26:04;;;;;;;1.65;0.77;;;;;;;;;;5039000;28;20053;-63
2022/07/29 03:28:35;;;;;;;1.75;0.70;;;;;;;;;;5074039;28;20044;-62
2022/07/29 03:31:07;;;;;;;1.73;0.82;;;;;;;;;;5055110;28;20498;-64
2022/07/29 03:33:37;;;;;;;1.80;1.00;;;;;;;;;;5073890;28;20053;-62
2022/07/29 03:36:08;;;;;;;2.55;0.88;;;;;;;;;;5073788;28;20041;-62
2022/07/29 03:38:42;;;;;;;4.10;0.85;;;;;;;;;;5054991;28;20064;-62
2022/07/29 03:41:18;;;;;;;;;;;;;;;;;;5071687;28;20087;-62
2022/07/29 03:43:52;;;;;;;2.88;0.82;;;;;;;;;;5051037;28;19921;-62
2022/07/29 03:46:26;;;;;;;1.75;0.77;;;;;;;;;;4991828;28;20049;-61
2022/07/29 03:49:01;;;;;;;2.08;0.55;;;;;;;;;;4991736;28;20054;-62
2022/07/29 03:51:32;;;;;;;2.15;0.70;;;;;;;;;;4992052;28;20058;-62
2022/07/29 03:54:04;;;;;;;4.65;1.40;;;;;;;;;;4991839;28;20050;-63
2022/07/29 03:56:47;;;;;;;2.35;0.80;;;;;;;;;;4991952;28;20054;-64
2022/07/29 03:59:22;;;;;;;3.00;0.80;;;;;;;;;;4952672;28;20044;-66
2022/07/29 04:01:53;;;;;;;4.20;0.63;;;;;;;;;;4953160;28;20059;-63
2022/07/29 04:04:25;;;;;;;3.50;0.95;;;;;;;;;;4937568;28;20213;-63
2022/07/29 04:06:57;;;;;;;3.03;0.88;;;;;;;;;;4952796;28;20098;-62
2022/07/29 04:09:27;;;;;;;2.70;0.90;;;;;;;;;;4953052;28;20491;-63
2022/07/29 04:11:57;;;;;;;3.33;0.77;;;;;;;;;;4936426;28;20051;-62
2022/07/29 04:14:32;;;;;;;5.68;0.73;;;;;;;;;;4952761;28;20055;-62
2022/07/29 04:17:04;;;;;;;5.32;0.80;;;;;;;;;;4952746;28;20511;-62
2022/07/29 04:19:35;;;;;;;2.35;1.02;;;;;;;;;;4947902;29;20400;-62
2022/07/29 04:22:05;;;;;;;1.83;0.88;;;;;;;;;;4951621;28;20058;-62
2022/07/29 04:24:35;;;;;;;1.48;0.70;;;;;;;;;;4960902;28;20526;-62
2022/07/29 04:27:06;;;;;;;3.78;0.80;;;;;;;;;;4955791;28;20058;-62
2022/07/29 04:29:36;;;;;;;3.53;0.95;;;;;;;;;;4928703;28;20063;-61
2022/07/29 04:32:26;;;;;;;2.20;0.70;;;;;;;;;;5010850;28;20061;-62
2022/07/29 04:34:57;;;;;;;3.85;0.80;;;;;;;;;;4991011;28;20046;-65
2022/07/29 04:37:29;;;;;;;1.63;0.70;;;;;;;;;;4939139;28;20117;-64
2022/07/29 04:39:59;;;;;;;1.83;0.73;;;;;;;;;;4971607;28;20051;-65
2022/07/29 04:42:30;;;;;;;2.97;0.93;;;;;;;;;;4990372;28;20534;-63
2022/07/29 04:45:00;;;;;;;3.55;0.70;;;;;;;;;;4942552;28;20058;-64
2022/07/29 04:47:30;;;;;;;3.42;1.02;;;;;;;;;;4958517;28;20057;-66
2022/07/29 04:50:01;;;;;;;2.22;1.13;;;;;;;;;;4990882;28;20423;-65
2022/07/29 04:52:32;;;;;;;1.60;0.70;;;;;;;;;;4990589;28;20158;-65
2022/07/29 04:55:03;;;;;;;2.10;0.60;;;;;;;;;;5006076;28;20054;-65
2022/07/29 04:57:33;;;;;;;1.80;0.43;;;;;;;;;;4954234;28;20399;-65
2022/07/29 05:00:06;;;;;;;1.42;0.47;;;;;;;;;;4974602;28;20431;-65
2022/07/29 05:02:37;;;;;;;1.80;0.55;;;;;;;;;;4977786;28;20063;-64
2022/07/29 05:05:07;;;;;;;1.98;0.50;;;;;;;;;;4971056;28;20059;-64
2022/07/29 05:07:38;;;;;;;1.65;0.60;;;;;;;;;;4970872;28;20418;-64
2022/07/29 05:10:09;;;;;;;2.95;0.52;;;;;;;;;;4955033;28;20435;-64
2022/07/29 05:12:40;;;;;;;0.35;0.20;;;;;;;;;;4989653;28;20046;-64
2022/07/29 05:15:10;;;;;;;3.20;0.43;;;;;;;;;;4990288;28;20062;-64
2022/07/29 05:17:40;;;;;;;1.58;0.32;;;;;;;;;;4974029;28;20510;-65
2022/07/29 05:20:10;;;;;;;2.75;0.25;;;;;;;;;;4998566;28;20058;-64
2022/07/29 05:22:41;;;;;;;0.77;0.30;;;;;;;;;;4989926;28;20808;-64
2022/07/29 05:25:11;;;;;;;1.67;0.40;;;;;;;;;;4991736;28;20054;-64
2022/07/29 05:27:41;;;;;;;1.25;0.50;;;;;;;;;;5009344;28;20065;-65
2022/07/29 05:30:12;;;;;;;0.80;0.20;;;;;;;;;;5009363;28;20169;-64
2022/07/29 05:32:42;;;;;;;0.93;0.32;;;;;;;;;;4989685;28;20053;-65
2022/07/29 05:35:13;;;;;;;0.60;0.30;;;;;;;;;;5000045;28;20068;-64
2022/07/29 05:37:44;;;;;;;1.30;0.40;;;;;;;;;;4999203;28;20442;-65
2022/07/29 05:40:14;;;;;;;1.38;0.43;;;;;;;;;;4989910;28;20065;-64
2022/07/29 05:42:45;;;;;;;0.50;0.40;;;;;;;;;;4989743;28;20521;-65
2022/07/29 05:45:15;;;;;;;0.40;0.25;;;;;;;;;;4989411;28;20062;-65
2022/07/29 05:47:45;;;;;;;0.68;0.20;;;;;;;;;;4990070;28;20049;-64
2022/07/29 05:50:15;;;;;;;0.73;0.40;;;;;;;;;;4989864;28;20188;-64
2022/07/29 05:52:46;;;;;;;0.55;0.20;;;;;;;;;;4990093;28;20058;-64
2022/07/29 05:55:17;;;;;;;3.05;0.32;;;;;;;;;;4989633;28;20058;-64
2022/07/29 05:57:48;;;;;;;1.08;0.22;;;;;;;;;;4989831;28;20066;-67
2022/07/29 06:00:18;;;;;;;1.45;0.30;;;;;;;;;;4989647;28;20051;-66
2022/07/29 06:02:48;;;;;;;0.85;0.40;;;;;;;;;;4989491;28;20494;-65
2022/07/29 06:05:19;;;;;;;1.30;0.35;;;;;;;;;;4992826;28;20166;-65
2022/07/29 06:07:49;;;;;;;0.98;0.20;;;;;;;;;;5012342;28;20062;-64
2022/07/29 06:10:20;;;;;;;0.30;0.15;;;;;;;;;;5038567;28;20049;-64
2022/07/29 06:12:54;;;;;;;0.63;0.30;;;;;;;;;;5028459;28;20502;-65
2022/07/29 06:15:24;;;;;;;0.57;0.30;;;;;;;;;;5028440;28;20065;-66
2022/07/29 06:17:54;;;;;;;1.27;0.30;;;;;;;;;;4980272;28;20076;-66
2022/07/29 06:20:30;;;;;;;0.68;0.35;;;;;;;;;;5028492;28;20532;-65
2022/07/29 06:23:01;;;;;;;0.65;0.20;;;;;;;;;;5008800;28;20054;-64
2022/07/29 06:25:36;;;;;;;1.10;0.55;;;;;;;;;;5008680;28;20058;-65
2022/07/29 06:28:07;;;;;;;1.90;0.40;;;;;;;;;;4960341;28;20065;-64
2022/07/29 06:30:37;;;;;;;0.28;0.20;;;;;;;;;;5008852;28;20073;-65
2022/07/29 06:33:07;;;;;;;0.32;0.22;;;;;;;;;;5008942;28;20042;-65
2022/07/29 06:35:38;;;;;;;1.25;0.30;;;;;;;;;;4988782;28;20080;-65
2022/07/29 06:38:18;;;;;;;0.50;0.30;;;;;;;;;;4957214;28;20055;-67
2022/07/29 06:41:05;;;;;;;0.57;0.43;;;;;;;;;;4989149;28;20063;-64
2022/07/29 06:43:38;;;;;;;0.50;0.20;;;;;;;;;;4969664;28;20062;-64
2022/07/29 06:46:21;;;;;;;0.77;0.25;;;;;;;;;;4930915;29;20048;-68
2022/07/29 06:48:52;;;;;;;;;;;;;;;;;;4915091;29;20059;-64
2022/07/29 06:51:22;;;;;;;1.45;0.25;;;;;;;;;;4944111;28;20336;-63
2022/07/29 06:53:53;;;;;;;0.77;0.32;;;;;;;;;;4950486;28;20166;-63
2022/07/29 06:56:32;;;;;;;1.27;0.30;;;;;;;;;;4952045;28;20055;-64
2022/07/29 06:59:10;;;;;;;0.82;0.40;;;;;;;;;;4934222;29;20544;-63
2022/07/29 07:01:42;;;;;;;0.70;0.40;;;;;;;;;;4952017;28;20475;-67
2022/07/29 07:04:13;;;;;;;0.70;0.40;;;;;;;;;;4953916;28;20066;-64
2022/07/29 07:06:45;;;;;;;1.88;0.43;;;;;;;;;;4953900;28;20446;-65
2022/07/29 07:09:15;;;;;;;0.45;0.35;;;;;;;;;;4918277;29;20424;-66
2022/07/29 07:11:45;;;;;;;1.08;0.50;;;;;;;;;;4915432;29;20056;-64
2022/07/29 07:14:18;;;;;;;0.60;0.30;;;;;;;;;;4898004;29;20068;-64
2022/07/29 07:16:49;;;;;;;0.93;0.70;;;;;;;;;;4896570;29;20060;-64
2022/07/29 07:19:20;;;;;;;0.55;0.30;;;;;;;;;;4865519;29;20466;-66
2022/07/29 07:21:50;;;;;;;0.70;0.60;;;;;;;;;;4877745;29;20060;-64
2022/07/29 07:24:23;;;;;;;0.60;0.40;;;;;;;;;;4877374;29;20060;-64
2022/07/29 07:26:53;;;;;;;0.90;0.50;;;;;;;;;;4915207;29;20401;-64
2022/07/29 07:29:24;;;;;;;0.70;0.30;;;;;;;;;;4896398;29;20053;-64
2022/07/29 07:31:55;;;;;;;0.98;0.40;;;;;;;;;;4896635;29;20065;-64
2022/07/29 07:34:29;;;;;;;0.88;0.45;;;;;;;;;;4895952;29;20456;-64
2022/07/29 07:37:00;;;;;;;0.55;0.30;;;;;;;;;;4918126;29;20535;-64
2022/07/29 07:39:31;;;;;;;0.50;0.22;;;;;;;;;;4914738;29;20063;-64
2022/07/29 07:42:01;;;;;;;0.80;0.40;;;;;;;;;;4895830;29;20056;-65
2022/07/29 07:44:31;;;;;;;0.70;0.40;;;;;;;;;;4896099;29;20067;-64
2022/07/29 07:47:23;;;;;;;0.60;0.38;;;;;;;;;;4896144;29;20063;-64
2022/07/29 07:49:55;;;;;;;0.95;0.40;;;;;;;;;;4928127;29;20043;-64
2022/07/29 07:52:26;;;;;;;1.33;0.40;;;;;;;;;;4933660;29;20129;-65
2022/07/29 07:54:56;;;;;;;1.52;0.70;;;;;;;;;;4933695;29;20416;-66
2022/07/29 07:57:26;;;;;;;0.77;0.52;;;;;;;;;;4933623;29;20048;-66
2022/07/29 07:59:57;;;;;;;1.15;0.68;;;;;;;;;;4919925;29;20401;-65
2022/07/29 08:02:27;;;;;;;0.68;0.43;;;;;;;;;;4898865;29;20504;-64
2022/07/29 08:04:59;;;;;;;1.38;0.50;;;;;;;;;;4952420;29;20055;-64
2022/07/29 08:07:29;;;;;;;1.63;0.70;;;;;;;;;;4907785;29;20097;-65
2022/07/29 08:09:59;;;;;;;1.38;0.95;;;;;;;;;;4933741;29;20544;-65
2022/07/29 08:12:30;;;;;;;2.08;0.40;;;;;;;;;;4958873;28;20075;-63
2022/07/29 08:15:00;;;;;;;0.95;0.47;;;;;;;;;;4933234;29;20056;-63
2022/07/29 08:17:30;;;;;;;1.08;0.50;;;;;;;;;;4909314;29;20057;-64
2022/07/29 08:20:04;;;;;;;1.90;0.38;;;;;;;;;;4920434;29;20051;-65
2022/07/29 08:22:34;;;;;;;1.02;0.40;;;;;;;;;;4952159;29;20067;-64
2022/07/29 08:25:05;;;;;;;2.05;0.50;;;;;;;;;;4952191;29;20059;-62
2022/07/29 08:27:36;;;;;;;1.38;0.63;;;;;;;;;;4942825;29;20059;-65
2022/07/29 08:30:12;;;;;;;1.52;0.63;;;;;;;;;;4914198;29;20055;-64
2022/07/29 08:32:42;;;;;;;1.33;0.52;;;;;;;;;;4905148;29;20497;-64
2022/07/29 08:35:24;;;;;;;1.00;0.75;;;;;;;;;;4913910;29;20648;-63
2022/07/29 08:37:56;;;;;;;1.00;0.50;;;;;;;;;;4914021;29;20052;-63
2022/07/29 08:40:27;;;;;;;1.60;0.60;;;;;;;;;;4882664;29;20067;-66
2022/07/29 08:43:06;;;;;;;1.88;0.60;;;;;;;;;;4913359;29;20052;-65
2022/07/29 08:45:46;;;;;;;1.85;1.00;;;;;;;;;;4952176;29;20055;-64
2022/07/29 08:48:22;;;;;;;1.35;0.68;;;;;;;;;;4952032;29;20051;-64
2022/07/29 08:50:58;;;;;;;3.42;0.68;;;;;;;;;;4952183;29;20664;-63
2022/07/29 08:53:29;;;;;;;2.55;0.60;;;;;;;;;;4943086;29;20062;-64
2022/07/29 08:56:01;;;;;;;1.80;0.70;;;;;;;;;;4920493;29;20117;-63
2022/07/29 08:58:34;;;;;;;2.03;0.85;;;;;;;;;;4929002;29;20055;-64
2022/07/29 09:01:07;;;;;;;2.28;0.73;;;;;;;;;;4913793;29;20068;-65
2022/07/29 09:03:43;;;;;;;4.13;0.90;;;;;;;;;;4932381;29;20047;-63
2022/07/29 09:06:17;;;;;;;1.92;0.80;;;;;;;;;;4917290;29;20075;-64
2022/07/29 09:08:48;;;;;;;1.65;0.80;;;;;;;;;;4949585;29;20067;-64
2022/07/29 09:11:19;;;;;;;2.08;0.77;;;;;;;;;;4951676;29;20074;-64
2022/07/29 09:13:49;;;;;;;2.70;0.85;;;;;;;;;;4951582;29;20066;-63
2022/07/29 09:16:19;;;;;;;2.15;0.93;;;;;;;;;;4932178;29;20056;-64
2022/07/29 09:19:27;;;;;;;2.03;1.13;;;;;;;;;;4945166;28;20531;-63
2022/07/29 09:22:01;;;;;;;1.25;0.50;;;;;;;;;;4970802;28;20697;-63
2022/07/29 09:24:45;;;;;;;5.32;0.70;;;;;;;;;;4951177;29;20051;-64
2022/07/29 09:27:20;;;;;;;1.35;0.60;;;;;;;;;;4951537;29;20508;-63
2022/07/29 09:30:00;;;;;;;1.80;0.85;;;;;;;;;;4931988;29;20074;-64
2022/07/29 09:32:53;;;;;;;3.35;1.00;;;;;;;;;;4932031;29;20067;-64
2022/07/29 09:35:26;;;;;;;3.05;0.82;;;;;;;;;;4931729;29;20052;-64
2022/07/29 09:37:56;;;;;;;1.58;0.77;;;;;;;;;;4931895;29;20046;-63
2022/07/29 09:40:28;;;;;;;1.85;0.80;;;;;;;;;;4912625;29;20101;-64
2022/07/29 09:43:10;;;;;;;1.55;0.90;;;;;;;;;;4912650;29;20381;-63
2022/07/29 09:45:40;;;;;;;1.67;0.70;;;;;;;;;;4912673;29;20555;-63
2022/07/29 09:48:25;;;;;;;2.72;1.10;;;;;;;;;;4912941;29;20604;-66
2022/07/29 09:50:57;;;;;;;2.90;0.95;;;;;;;;;;4912475;29;20059;-64
2022/07/29 09:53:33;;;;;;;4.45;0.80;;;;;;;;;;4893787;29;20064;-63
2022/07/29 09:56:04;;;;;;;1.55;0.82;;;;;;;;;;4893984;29;20060;-66
2022/07/29 09:58:34;;;;;;;1.15;0.60;;;;;;;;;;4874902;29;20090;-63
2022/07/29 10:01:04;;;;;;;1.38;0.60;;;;;;;;;;4875498;29;20056;-66
2022/07/29 10:03:54;;;;;;;2.10;0.75;;;;;;;;;;4874864;29;20049;-63
2022/07/29 10:06:24;;;;;;;2.13;0.80;;;;;;;;;;4874906;29;20049;-64
2022/07/29 10:08:54;;;;;;;2.05;0.90;;;;;;;;;;4862660;29;20171;-63
2022/07/29 10:11:25;;;;;;;2.63;0.90;;;;;;;;;;4896222;29;20171;-64
2022/07/29 10:14:16;;;;;;;2.28;0.85;;;;;;;;;;4894003;29;20064;-64
2022/07/29 10:16:47;;;;;;;1.80;0.70;;;;;;;;;;4931328;29;20052;-64
2022/07/29 10:19:17;;;;;;;1.98;0.82;;;;;;;;;;4915874;29;20059;-64
2022/07/29 10:21:48;;;;;;;5.20;1.00;;;;;;;;;;4949672;28;20055;-66
2022/07/29 10:24:30;;;;;;;3.33;1.13;;;;;;;;;;4934225;28;20534;-64
2022/07/29 10:27:01;;;;;;;2.20;0.95;;;;;;;;;;4950787;28;20439;-65
2022/07/29 10:29:32;;;;;;;3.67;0.80;;;;;;;;;;4896024;29;20506;-64
2022/07/29 10:32:31;;;;;;;2.17;0.88;;;;;;;;;;4897464;29;20528;-66
2022/07/29 10:35:11;;;;;;;2.42;1.02;;;;;;;;;;4860251;29;20053;-64
2022/07/29 10:38:29;;;;;;;2.70;1.05;;;;;;;;;;4861523;29;20072;-64
2022/07/29 10:41:34;;;;;;;2.05;0.70;;;;;;;;;;4866723;29;20529;-68
2022/07/29 10:44:19;;;;;;;3.40;1.00;;;;;;;;;;4888359;29;20067;-67
2022/07/29 10:46:53;;;;;;;2.13;0.80;;;;;;;;;;4866713;29;20052;-68
2022/07/29 10:49:26;;;;;;;3.22;1.30;;;;;;;;;;4920928;29;20055;-65
2022/07/29 10:52:00;;;;;;;5.13;2.05;;;;;;;;;;4915971;29;20059;-65
2022/07/29 10:57:26;;;;;;;2.60;1.00;;;;;;;;;;4878034;29;20068;-66
2022/07/29 11:00:26;;;;;;;3.03;1.13;;;;;;;;;;4878185;29;20065;-63
2022/07/29 11:02:59;;;;;;;3.30;1.25;;;;;;;;;;4878215;29;20502;-64
2022/07/29 11:05:55;;;;;;;;;;;;;;;;;;4897131;29;20064;-64
2022/07/29 11:08:30;;;;;;;9.73;3.22;;;;;;;;;;4934930;29;19926;-64
2022/07/29 11:11:19;;;;;;;6.35;1.65;;;;;;;;;;4934683;28;20060;-65
2022/07/29 11:13:53;;;;;;;2.95;1.15;;;;;;;;;;4953742;28;20519;-65
2022/07/29 11:16:23;;;;;;;3.25;1.25;;;;;;;;;;4953532;28;20435;-64
2022/07/29 11:19:12;;;;;;;12.18;1.90;;;;;;;;;;4992287;28;20058;-64
2022/07/29 11:21:47;;;;;;;2.67;1.20;;;;;;;;;;4959912;28;20600;-63
2022/07/29 11:24:27;;;;;;;2.58;1.42;;;;;;;;;;4992221;28;20638;-64
2022/07/29 11:27:15;;;;;;;2.63;1.10;;;;;;;;;;4992319;28;20046;-63
2022/07/29 11:30:06;;;;;;;2.53;0.73;;;;;;;;;;4992053;28;20062;-63
2022/07/29 11:32:43;;;;;;;1.80;0.77;;;;;;;;;;5018493;28;20065;-65
2022/07/29 11:35:24;;;;;;;2.05;0.90;;;;;;;;;;5044977;28;20048;-66
2022/07/29 11:38:29;;;;;;;1.95;0.65;;;;;;;;;;5051518;28;20069;-65
2022/07/29 11:41:29;;;;;;;4.95;1.23;;;;;;;;;;5051316;28;20052;-63
2022/07/29 11:44:00;;;;;;;2.70;1.00;;;;;;;;;;4992181;28;20426;-65
2022/07/29 11:46:49;;;;;;;2.92;1.15;;;;;;;;;;4991811;28;20058;-63
2022/07/29 11:49:24;;;;;;;2.38;0.90;;;;;;;;;;4991761;28;20061;-63
2022/07/29 11:52:15;;;;;;;2.92;0.80;;;;;;;;;;4992259;28;20519;-63
2022/07/29 11:54:49;;;;;;;3.53;1.00;;;;;;;;;;4976081;28;20059;-64
2022/07/29 11:57:29;;;;;;;1.35;0.50;;;;;;;;;;4974355;28;20062;-63
2022/07/29 12:00:12;;;;;;;2.10;0.85;;;;;;;;;;4937811;29;20388;-66
2022/07/29 12:02:46;;;;;;;1.85;0.70;;;;;;;;;;4905346;29;20058;-63
2022/07/29 12:05:17;;;;;;;4.28;2.08;;;;;;;;;;4952660;29;20480;-67
2022/07/29 12:08:21;;;;;;;2.80;1.27;;;;;;;;;;4939241;29;20059;-63
2022/07/29 12:10:52;;;;;;;3.40;1.08;;;;;;;;;;4952699;29;20503;-64
2022/07/29 12:13:24;;;;;;;1.73;0.80;;;;;;;;;;4932961;29;20163;-64
2022/07/29 12:16:05;;;;;;;2.85;0.88;;;;;;;;;;4933544;29;20071;-64
2022/07/29 12:18:35;;;;;;;3.03;0.90;;;;;;;;;;4932871;29;20496;-65
2022/07/29 12:21:08;;;;;;;1.73;0.77;;;;;;;;;;4962425;28;20055;-63
2022/07/29 12:23:56;;;;;;;3.40;1.10;;;;;;;;;;4977724;28;20482;-63
2022/07/29 12:26:53;;;;;;;2.95;0.85;;;;;;;;;;5012834;28;20053;-64
2022/07/29 12:29:26;;;;;;;4.63;1.65;;;;;;;;;;5030376;28;20053;-63
2022/07/29 12:32:05;;;;;;;3.72;1.10;;;;;;;;;;5029964;28;20064;-65
2022/07/29 12:34:43;;;;;;;4.00;1.33;;;;;;;;;;4990469;28;20530;-63
2022/07/29 12:37:13;;;;;;;4.40;1.45;;;;;;;;;;4963696;28;20054;-63
2022/07/29 12:39:44;;;;;;;3.28;1.20;;;;;;;;;;5010065;28;20070;-65
2022/07/29 12:42:15;;;;;;;1.45;0.75;;;;;;;;;;5010159;28;20068;-62
2022/07/29 12:44:51;;;;;;;2.63;0.50;;;;;;;;;;5000785;28;20540;-64
2022/07/29 12:47:22;;;;;;;4.53;1.75;;;;;;;;;;4961833;28;20057;-63
2022/07/29 12:50:11;;;;;;;3.85;1.30;;;;;;;;;;5010398;28;20513;-62
2022/07/29 12:52:42;;;;;;;6.10;2.72;;;;;;;;;;5009489;28;20058;-63
2022/07/29 12:55:12;;;;;;;1.95;0.98;;;;;;;;;;4993230;28;20516;-63
2022/07/29 12:57:52;;;;;;;3.33;0.77;;;;;;;;;;5010199;28;20437;-62
2022/07/29 13:00:24;;;;;;;2.05;0.90;;;;;;;;;;5009737;28;20054;-63
2022/07/29 13:02:58;;;;;;;1.90;0.90;;;;;;;;;;5009912;28;20058;-63
2022/07/29 13:05:45;;;;;;;4.40;1.80;;;;;;;;;;4993491;28;20056;-69
2022/07/29 13:08:21;;;;;;;6.68;2.13;;;;;;;;;;5009996;28;20049;-65
2022/07/29 13:10:51;;;;;;;3.22;1.33;;;;;;;;;;5009634;28;20802;-63
2022/07/29 13:13:21;;;;;;;4.32;1.38;;;;;;;;;;4977982;28;20516;-63
2022/07/29 13:16:07;;;;;;;1.02;0.43;;;;;;;;;;5009824;28;20054;-63
2022/07/29 13:18:38;;;;;;;1.33;0.68;;;;;;;;;;5010119;28;20517;-64
2022/07/29 13:21:14;;;;;;;1.20;0.55;;;;;;;;;;5009681;28;20061;-64
2022/07/29 13:23:46;;;;;;;6.60;3.08;;;;;;;;;;5048875;28;20056;-64
2022/07/29 13:26:19;;;;;;;1.92;1.15;;;;;;;;;;5061570;28;20045;-63
2022/07/29 13:28:50;;;;;;;1.10;0.73;;;;;;;;;;5015902;28;20513;-63
2022/07/29 13:31:21;;;;;;;2.67;0.70;;;;;;;;;;5050880;28;20060;-63
2022/07/29 13:33:52;;;;;;;3.05;1.65;;;;;;;;;;5068588;28;20052;-63
2022/07/29 13:36:22;;;;;;;1.38;0.50;;;;;;;;;;5035356;28;20422;-62
2022/07/29 13:38:53;;;;;;;1.92;0.80;;;;;;;;;;5051569;28;20064;-63
2022/07/29 13:41:23;;;;;;;1.85;0.90;;;;;;;;;;5008885;28;20041;-63
2022/07/29 13:43:53;;;;;;;2.97;0.90;;;;;;;;;;5008715;28;20054;-65
2022/07/29 13:46:24;;;;;;;2.50;0.65;;;;;;;;;;4989437;28;20055;-62
2022/07/29 13:48:55;;;;;;;1.80;0.73;;;;;;;;;;4973518;28;20050;-62
2022/07/29 13:51:25;;;;;;;4.80;0.93;;;;;;;;;;4989181;28;20054;-63
2022/07/29 13:53:55;;;;;;;4.30;0.88;;;;;;;;;;4989655;28;20058;-62
2022/07/29 13:56:26;;;;;;;3.90;1.17;;;;;;;;;;4973453;28;20054;-63
2022/07/29 13:58:57;;;;;;;2.13;0.95;;;;;;;;;;4969785;28;20051;-62
2022/07/29 14:01:27;;;;;;;2.92;1.10;;;;;;;;;;4970062;28;20065;-64
2022/07/29 14:03:58;;;;;;;3.63;1.13;;;;;;;;;;4949997;28;20058;-63
2022/07/29 14:06:29;;;;;;;2.25;0.68;;;;;;;;;;4940144;29;20512;-63
2022/07/29 14:08:59;;;;;;;1.23;0.63;;;;;;;;;;4950787;29;20047;-66
2022/07/29 14:11:29;;;;;;;2.88;0.90;;;;;;;;;;4969262;28;20055;-64
2022/07/29 14:13:59;;;;;;;1.55;0.60;;;;;;;;;;4989790;28;20070;-63
2022/07/29 14:16:30;;;;;;;1.80;0.75;;;;;;;;;;4989281;28;20490;-63
2022/07/29 14:19:00;;;;;;;2.42;0.88;;;;;;;;;;4999245;28;20083;-63
2022/07/29 14:21:30;;;;;;;1.35;0.70;;;;;;;;;;5009154;28;20061;-63
2022/07/29 14:24:01;;;;;;;2.30;0.73;;;;;;;;;;5018659;28;20529;-63
2022/07/29 14:26:47;;;;;;;3.05;0.60;;;;;;;;;;5011851;28;20041;-62
2022/07/29 14:29:18;;;;;;;3.38;0.90;;;;;;;;;;5028692;28;20061;-62
2022/07/29 14:31:49;;;;;;;1.95;0.73;;;;;;;;;;5007967;28;20050;-63
2022/07/29 14:34:19;;;;;;;1.58;0.60;;;;;;;;;;4976421;28;20061;-63
2022/07/29 14:36:49;;;;;;;2.63;0.57;;;;;;;;;;5008610;28;20054;-63
2022/07/29 14:39:19;;;;;;;1.50;0.50;;;;;;;;;;4989005;28;20057;-65
2022/07/29 14:41:51;;;;;;;1.48;0.45;;;;;;;;;;4989185;28;20085;-63
2022/07/29 14:44:21;;;;;;;1.25;0.50;;;;;;;;;;4988569;28;20070;-63
2022/07/29 14:46:51;;;;;;;1.50;0.50;;;;;;;;;;4988879;28;20073;-64
2022/07/29 14:49:21;;;;;;;5.95;0.50;;;;;;;;;;4988568;28;20050;-64
2022/07/29 14:51:52;;;;;;;1.67;0.50;;;;;;;;;;4989015;28;20498;-66
2022/07/29 14:54:23;;;;;;;1.15;0.70;;;;;;;;;;4956763;28;20504;-64
2022/07/29 14:56:56;;;;;;;1.70;0.50;;;;;;;;;;4988705;28;20055;-67
2022/07/29 14:59:27;;;;;;;1.83;0.65;;;;;;;;;;4989101;28;20197;-62
2022/07/29 15:01:57;;;;;;;0.90;0.40;;;;;;;;;;4988750;28;20062;-63
2022/07/29 15:04:28;;;;;;;1.20;0.60;;;;;;;;;;4988875;28;20058;-64
2022/07/29 15:06:58;;;;;;;2.65;0.63;;;;;;;;;;4953486;28;20212;-66
2022/07/29 15:09:28;;;;;;;2.65;0.90;;;;;;;;;;4989106;28;20065;-64
2022/07/29 15:11:59;;;;;;;3.15;0.55;;;;;;;;;;5008470;28;20065;-64
2022/07/29 15:14:31;;;;;;;1.48;0.60;;;;;;;;;;5008352;28;20534;-63
2022/07/29 15:17:02;;;;;;;2.15;0.63;;;;;;;;;;4971390;28;20057;-62
2022/07/29 15:19:33;;;;;;;2.72;1.67;;;;;;;;;;4972689;28;20055;-63
2022/07/29 15:22:07;;;;;;;1.55;0.70;;;;;;;;;;4945287;28;20458;-63
2022/07/29 15:24:37;;;;;;;2.72;1.05;;;;;;;;;;4933934;29;20044;-63
2022/07/29 15:27:13;;;;;;;1.27;0.73;;;;;;;;;;4944434;29;20542;-62
2022/07/29 15:29:45;;;;;;;1.40;0.68;;;;;;;;;;4934550;29;20060;-62
2022/07/29 15:32:15;;;;;;;1.90;0.57;;;;;;;;;;4934134;29;20067;-63
2022/07/29 15:34:45;;;;;;;1.73;0.65;;;;;;;;;;4914888;29;20052;-63